Time;durP1;ratioP1;P1;durP2;ratioP2;P2;SDS_P1;SDS_P2;PMS_P1;PMS_P2;Temp;Humidity;BMP_temperature;BMP_pressure;BME280_temperature;BME280_humidity;BME280_pressure;Samples;Min_cycle;Max_cycle;Signal;HPM_P1;HPM_P2
2022/02/14 00:01:17;;;;;;;0.77;0.60;;;8.20;77.30;;;;;;6157290;23;20857;-71
2022/02/14 00:03:43;;;;;;;0.95;0.50;;;8.20;77.30;;;;;;6157018;23;20012;-71
2022/02/14 00:06:09;;;;;;;0.73;0.60;;;8.30;77.40;;;;;;6181672;23;20043;-71
2022/02/14 00:08:34;;;;;;;1.13;0.60;;;8.30;77.40;;;;;;6183947;23;20001;-71
2022/02/14 00:11:00;;;;;;;1.27;0.73;;;8.30;77.30;;;;;;6180480;23;20002;-72
2022/02/14 00:13:26;;;;;;;0.90;0.47;;;8.30;77.30;;;;;;6154861;23;20008;-71
2022/02/14 00:15:52;;;;;;;1.05;0.70;;;8.40;77.30;;;;;;6157956;23;20053;-70
2022/02/14 00:18:18;;;;;;;0.80;0.60;;;8.40;77.20;;;;;;6182178;23;19997;-70
2022/02/14 00:20:44;;;;;;;1.55;0.65;;;8.50;77.30;;;;;;6151642;23;20338;-70
2022/02/14 00:23:10;;;;;;;1.20;0.85;;;8.40;77.30;;;;;;6133069;23;20016;-71
2022/02/14 00:25:36;;;;;;;2.88;1.05;;;8.50;77.30;;;;;;6156874;23;20016;-71
2022/02/14 00:28:02;;;;;;;1.40;1.00;;;8.50;77.20;;;;;;6157202;23;20008;-72
2022/02/14 00:30:29;;;;;;;1.30;0.90;;;8.60;77.00;;;;;;6179909;23;20002;-71
2022/02/14 00:32:54;;;;;;;1.00;0.60;;;8.60;77.00;;;;;;6181823;23;20067;-71
2022/02/14 00:35:20;;;;;;;1.23;0.70;;;8.70;77.00;;;;;;6157399;23;20437;-71
2022/02/14 00:37:48;;;;;;;1.35;0.85;;;8.60;77.00;;;;;;6154231;23;20001;-72
2022/02/14 00:40:14;;;;;;;1.40;0.77;;;8.70;77.00;;;;;;6182750;23;20051;-71
2022/02/14 00:42:40;;;;;;;0.85;0.60;;;8.80;77.00;;;;;;6183451;23;20425;-71
2022/02/14 00:45:06;;;;;;;1.48;0.80;;;8.80;76.90;;;;;;6184031;23;20001;-71
2022/02/14 00:47:32;;;;;;;0.70;0.70;;;8.90;76.90;;;;;;6183685;23;20020;-72
2022/02/14 00:49:57;;;;;;;1.25;0.70;;;8.90;76.90;;;;;;6179381;23;20438;-72
2022/02/14 00:52:26;;;;;;;1.58;0.70;;;8.90;76.70;;;;;;6183316;23;20004;-71
2022/02/14 00:54:57;;;;;;;1.15;0.75;;;9.00;76.70;;;;;;6183260;23;20002;-72
2022/02/14 00:57:24;;;;;;;1.35;0.63;;;9.00;76.70;;;;;;6183275;23;20095;-71
2022/02/14 00:59:50;;;;;;;0.88;0.60;;;9.10;76.70;;;;;;6180186;23;20008;-71
2022/02/14 01:02:16;;;;;;;0.90;0.68;;;9.00;76.60;;;;;;6181448;23;20025;-71
2022/02/14 01:04:41;;;;;;;2.22;0.70;;;9.10;76.60;;;;;;6183115;23;20341;-72
2022/02/14 01:07:07;;;;;;;0.50;0.50;;;9.10;76.60;;;;;;6182887;23;20017;-72
2022/02/14 01:09:33;;;;;;;1.65;0.70;;;9.10;76.70;;;;;;6182942;23;20001;-71
2022/02/14 01:11:59;;;;;;;0.82;0.52;;;9.10;76.80;;;;;;6183235;23;20004;-72
2022/02/14 01:14:25;;;;;;;0.40;0.40;;;9.10;76.90;;;;;;6183485;23;20017;-72
2022/02/14 01:16:50;;;;;;;1.08;0.70;;;9.10;77.00;;;;;;6183529;23;20005;-71
2022/02/14 01:19:16;;;;;;;0.60;0.60;;;9.10;77.00;;;;;;6183274;23;20001;-72
2022/02/14 01:21:45;;;;;;;0.65;0.50;;;9.10;77.00;;;;;;6181396;23;20310;-72
2022/02/14 01:24:10;;;;;;;0.93;0.40;;;9.20;77.10;;;;;;6155715;23;20046;-72
2022/02/14 01:26:36;;;;;;;1.30;0.50;;;9.10;77.10;;;;;;6156577;23;20013;-71
2022/02/14 01:29:02;;;;;;;0.98;0.47;;;9.10;77.10;;;;;;6181754;23;19997;-71
2022/02/14 01:31:28;;;;;;;0.80;0.50;;;9.10;77.20;;;;;;6183160;23;20001;-71
2022/02/14 01:33:55;;;;;;;0.35;0.35;;;9.20;77.30;;;;;;6181227;23;20434;-71
2022/02/14 01:36:21;;;;;;;0.95;0.60;;;9.20;77.30;;;;;;6181457;23;20005;-71
2022/02/14 01:38:46;;;;;;;1.08;0.50;;;9.20;77.20;;;;;;6178930;23;20434;-71
2022/02/14 01:41:12;;;;;;;1.08;0.50;;;9.20;77.30;;;;;;6157891;23;20426;-71
2022/02/14 01:43:39;;;;;;;0.65;0.40;;;9.20;77.20;;;;;;6131518;23;19998;-71
2022/02/14 01:46:04;;;;;;;1.08;0.70;;;9.20;77.30;;;;;;6182397;23;20041;-71
2022/02/14 01:48:30;;;;;;;0.73;0.47;;;9.20;77.20;;;;;;6184027;23;20055;-72
2022/02/14 01:50:56;;;;;;;1.40;0.45;;;9.20;77.20;;;;;;6156505;23;20048;-71
2022/02/14 01:53:23;;;;;;;1.10;0.40;;;9.30;77.20;;;;;;6157836;23;20008;-71
2022/02/14 01:55:51;;;;;;;1.30;0.50;;;9.30;77.20;;;;;;6184727;23;20067;-71
2022/02/14 01:58:17;;;;;;;1.15;0.60;;;9.30;77.20;;;;;;6184530;23;20076;-71
2022/02/14 02:00:44;;;;;;;0.93;0.60;;;9.40;77.30;;;;;;6184647;23;20025;-71
2022/02/14 02:03:10;;;;;;;1.02;0.50;;;9.40;77.20;;;;;;6180541;23;20006;-71
2022/02/14 02:05:37;;;;;;;1.42;0.40;;;9.40;77.20;;;;;;6183911;23;20430;-71
2022/02/14 02:08:03;;;;;;;0.65;0.40;;;9.40;77.10;;;;;;6184524;23;20370;-72
2022/02/14 02:10:29;;;;;;;1.10;0.50;;;9.40;77.20;;;;;;6183873;23;20001;-72
2022/02/14 02:12:56;;;;;;;0.63;0.52;;;9.40;77.20;;;;;;6184460;23;20023;-73
2022/02/14 02:15:24;;;;;;;1.00;0.52;;;9.40;77.30;;;;;;6184507;23;20009;-71
2022/02/14 02:17:50;;;;;;;0.93;0.30;;;9.40;77.40;;;;;;6182481;23;20005;-71
2022/02/14 02:20:17;;;;;;;1.10;0.60;;;9.40;77.60;;;;;;6184496;23;20015;-71
2022/02/14 02:22:45;;;;;;;0.50;0.30;;;9.30;77.70;;;;;;6182415;23;20098;-71
2022/02/14 02:25:11;;;;;;;1.02;0.38;;;9.20;77.80;;;;;;6183978;23;20049;-71
2022/02/14 02:27:39;;;;;;;0.40;0.30;;;9.20;78.50;;;;;;6182588;23;20396;-72
2022/02/14 02:30:08;;;;;;;0.28;0.28;;;9.20;78.10;;;;;;6183739;23;20001;-71
2022/02/14 02:32:34;;;;;;;0.30;0.20;;;9.10;78.20;;;;;;6183958;23;20001;-71
2022/02/14 02:35:01;;;;;;;0.20;0.20;;;9.10;78.30;;;;;;6183668;23;20084;-71
2022/02/14 02:37:27;;;;;;;0.25;0.25;;;9.10;78.40;;;;;;6182398;23;20076;-71
2022/02/14 02:39:54;;;;;;;0.55;0.40;;;9.10;78.50;;;;;;6183754;23;20052;-71
2022/02/14 02:42:22;;;;;;;0.40;0.40;;;9.10;78.50;;;;;;6184347;23;20191;-72
2022/02/14 02:44:49;;;;;;;0.47;0.30;;;9.00;78.60;;;;;;6183692;23;20008;-71
2022/02/14 02:47:17;;;;;;;0.40;0.32;;;9.10;78.60;;;;;;6182710;23;20089;-72
2022/02/14 02:49:44;;;;;;;0.20;0.10;;;9.00;78.60;;;;;;6183504;23;19997;-71
2022/02/14 02:52:12;;;;;;;0.88;0.30;;;9.00;78.60;;;;;;6183676;23;20005;-72
2022/02/14 02:54:38;;;;;;;0.45;0.35;;;9.00;78.60;;;;;;6183607;23;20008;-71
2022/02/14 02:57:04;;;;;;;0.47;0.30;;;9.10;78.60;;;;;;6184018;23;20129;-71
2022/02/14 02:59:33;;;;;;;0.47;0.30;;;9.10;78.50;;;;;;6183531;23;20417;-71
2022/02/14 03:02:01;;;;;;;0.35;0.30;;;9.10;78.50;;;;;;6182180;23;20008;-71
2022/02/14 03:04:26;;;;;;;0.52;0.22;;;9.10;78.50;;;;;;6184305;23;20012;-71
2022/02/14 03:06:52;;;;;;;0.32;0.32;;;9.10;78.50;;;;;;6184069;23;20381;-71
2022/02/14 03:09:18;;;;;;;1.00;0.50;;;9.10;78.60;;;;;;6183818;23;20449;-71
2022/02/14 03:11:46;;;;;;;0.52;0.45;;;9.10;78.50;;;;;;6156970;23;20023;-72
2022/02/14 03:14:13;;;;;;;0.60;0.20;;;9.10;78.50;;;;;;6183912;23;20009;-71
2022/02/14 03:16:39;;;;;;;0.63;0.60;;;9.10;78.50;;;;;;6183997;23;20366;-71
2022/02/14 03:19:06;;;;;;;0.20;0.20;;;9.20;78.50;;;;;;6183805;23;20001;-71
2022/02/14 03:21:33;;;;;;;0.30;0.20;;;9.20;78.40;;;;;;6180391;23;20025;-72
2022/02/14 03:24:00;;;;;;;2.13;0.70;;;9.20;78.40;;;;;;6183928;23;20008;-72
2022/02/14 03:26:26;;;;;;;0.50;0.40;;;9.20;78.30;;;;;;6182313;23;20416;-71
2022/02/14 03:28:53;;;;;;;0.47;0.30;;;9.20;78.30;;;;;;6183535;23;20001;-72
2022/02/14 03:31:20;;;;;;;0.82;0.40;;;9.30;78.20;;;;;;6181870;23;20007;-71
2022/02/14 03:33:46;;;;;;;1.58;0.30;;;9.30;78.10;;;;;;6184012;23;19997;-72
2022/02/14 03:36:13;;;;;;;0.63;0.50;;;9.30;78.00;;;;;;6183837;23;20012;-72
2022/02/14 03:38:39;;;;;;;0.30;0.30;;;9.40;78.00;;;;;;6184122;23;20016;-72
2022/02/14 03:41:05;;;;;;;0.88;0.52;;;9.40;78.00;;;;;;6182067;23;20055;-72
2022/02/14 03:43:31;;;;;;;0.52;0.50;;;9.50;77.90;;;;;;6183886;23;20332;-72
2022/02/14 03:45:57;;;;;;;1.50;0.50;;;9.50;77.80;;;;;;6183296;23;20017;-71
2022/02/14 03:48:25;;;;;;;1.00;0.82;;;9.50;77.70;;;;;;6183999;23;20024;-72
2022/02/14 03:50:52;;;;;;;0.65;0.60;;;9.60;77.70;;;;;;6182049;23;20016;-72
2022/02/14 03:53:18;;;;;;;0.50;0.40;;;9.70;77.60;;;;;;6184304;23;20051;-71
2022/02/14 03:55:44;;;;;;;1.48;0.85;;;9.80;77.50;;;;;;6184243;23;20005;-71
2022/02/14 03:58:10;;;;;;;0.75;0.57;;;9.80;77.20;;;;;;6157428;23;20334;-72
2022/02/14 04:00:35;;;;;;;1.10;0.55;;;9.80;77.10;;;;;;6183743;23;20329;-71
2022/02/14 04:03:02;;;;;;;1.02;0.50;;;9.90;77.10;;;;;;6157393;23;20013;-72
2022/02/14 04:05:27;;;;;;;3.13;1.02;;;9.90;77.00;;;;;;6181680;23;20029;-72
2022/02/14 04:07:57;;;;;;;1.13;0.57;;;10.00;76.90;;;;;;6184063;23;20001;-71
2022/02/14 04:10:23;;;;;;;2.22;0.68;;;10.00;76.90;;;;;;6184098;23;20302;-71
2022/02/14 04:12:49;;;;;;;0.95;0.77;;;10.00;76.80;;;;;;6183670;23;20017;-71
2022/02/14 04:15:15;;;;;;;0.88;0.70;;;10.10;76.70;;;;;;6183976;23;20444;-71
2022/02/14 04:17:41;;;;;;;1.17;0.70;;;10.10;76.60;;;;;;6183465;23;20005;-71
2022/02/14 04:20:08;;;;;;;1.17;0.63;;;10.10;76.60;;;;;;6183670;23;20001;-72
2022/02/14 04:22:37;;;;;;;1.33;0.73;;;10.20;76.60;;;;;;6182141;23;20009;-71
2022/02/14 04:25:04;;;;;;;0.98;0.65;;;10.20;76.60;;;;;;6181356;23;20009;-71
2022/02/14 04:27:30;;;;;;;1.58;0.80;;;10.20;77.10;;;;;;6183424;23;20021;-71
2022/02/14 04:29:56;;;;;;;1.80;0.73;;;10.20;76.60;;;;;;6182392;23;20418;-71
2022/02/14 04:32:22;;;;;;;2.28;0.88;;;10.30;76.50;;;;;;6183430;23;20001;-71
2022/02/14 04:34:48;;;;;;;1.38;0.80;;;10.30;76.30;;;;;;6183124;23;20007;-71
2022/02/14 04:37:15;;;;;;;2.45;0.93;;;10.40;76.20;;;;;;6183330;23;20041;-71
2022/02/14 04:39:42;;;;;;;1.02;0.90;;;10.40;76.10;;;;;;6183365;23;20089;-71
2022/02/14 04:42:09;;;;;;;1.73;0.80;;;10.40;76.10;;;;;;6183429;23;20005;-71
2022/02/14 04:44:34;;;;;;;1.17;0.80;;;10.40;76.10;;;;;;6183400;23;20009;-71
2022/02/14 04:47:00;;;;;;;1.33;0.57;;;10.50;76.00;;;;;;6157155;23;20437;-72
2022/02/14 04:49:26;;;;;;;1.08;0.65;;;10.60;76.20;;;;;;6183472;23;20001;-72
2022/02/14 04:51:52;;;;;;;1.23;0.75;;;10.50;76.10;;;;;;6183278;23;19997;-71
2022/02/14 04:54:17;;;;;;;1.58;0.90;;;10.40;76.00;;;;;;6156763;23;20013;-71
2022/02/14 04:56:43;;;;;;;1.75;0.80;;;10.50;76.20;;;;;;6183714;23;20085;-71
2022/02/14 04:59:09;;;;;;;1.10;0.80;;;10.50;76.10;;;;;;6183811;23;20001;-72
2022/02/14 05:01:35;;;;;;;1.27;0.60;;;10.50;76.00;;;;;;6183933;23;20001;-71
2022/02/14 05:04:01;;;;;;;0.98;0.80;;;10.50;76.10;;;;;;6157187;23;20016;-71
2022/02/14 05:06:27;;;;;;;0.93;0.73;;;10.50;76.20;;;;;;6183579;23;20147;-71
2022/02/14 05:08:53;;;;;;;1.02;0.80;;;10.50;76.20;;;;;;6181864;23;20402;-71
2022/02/14 05:11:19;;;;;;;1.42;0.80;;;10.50;76.00;;;;;;6181477;23;20068;-71
2022/02/14 05:13:46;;;;;;;1.35;0.68;;;10.50;76.00;;;;;;6182412;23;20004;-72
2022/02/14 05:16:11;;;;;;;1.73;0.73;;;10.50;76.00;;;;;;6182438;23;20005;-71
2022/02/14 05:18:37;;;;;;;0.80;0.65;;;10.50;76.10;;;;;;6183637;23;20369;-71
2022/02/14 05:21:04;;;;;;;2.65;0.88;;;10.50;76.10;;;;;;6183636;23;20119;-71
2022/02/14 05:23:29;;;;;;;2.05;0.80;;;10.60;75.90;;;;;;6183776;23;20005;-72
2022/02/14 05:25:55;;;;;;;1.38;0.70;;;10.60;75.90;;;;;;6183788;23;20451;-71
2022/02/14 05:28:21;;;;;;;1.83;0.73;;;10.60;76.00;;;;;;6183713;23;20482;-71
2022/02/14 05:30:47;;;;;;;1.55;0.73;;;10.50;76.00;;;;;;6183381;23;20007;-71
2022/02/14 05:33:13;;;;;;;1.63;0.90;;;10.60;76.00;;;;;;6183707;23;20007;-71
2022/02/14 05:35:40;;;;;;;1.40;0.50;;;10.60;75.90;;;;;;6181554;23;20006;-72
2022/02/14 05:38:08;;;;;;;0.90;0.70;;;10.60;75.90;;;;;;6182999;23;20012;-72
2022/02/14 05:40:34;;;;;;;1.00;0.80;;;10.60;76.00;;;;;;6183652;23;20048;-72
2022/02/14 05:42:59;;;;;;;1.30;0.70;;;10.60;76.10;;;;;;6181753;23;20426;-72
2022/02/14 05:45:25;;;;;;;0.63;0.55;;;10.60;76.00;;;;;;6181603;23;20875;-71
2022/02/14 05:47:51;;;;;;;1.08;0.70;;;10.60;75.90;;;;;;6183700;23;20008;-71
2022/02/14 05:50:17;;;;;;;1.33;0.80;;;10.60;75.70;;;;;;6183653;23;20001;-71
2022/02/14 05:52:44;;;;;;;1.10;0.85;;;10.70;75.70;;;;;;6183010;23;20017;-72
2022/02/14 05:55:10;;;;;;;1.70;0.90;;;10.70;75.60;;;;;;6182942;23;20012;-71
2022/02/14 05:57:36;;;;;;;1.20;0.80;;;10.70;75.60;;;;;;6183024;23;20001;-71
2022/02/14 06:00:05;;;;;;;1.00;0.70;;;10.70;75.80;;;;;;6183144;23;20056;-71
2022/02/14 06:02:31;;;;;;;1.27;0.77;;;10.70;75.70;;;;;;6181260;23;20008;-71
2022/02/14 06:04:56;;;;;;;1.52;0.88;;;10.70;75.60;;;;;;6183003;23;20077;-71
2022/02/14 06:07:22;;;;;;;1.00;0.80;;;10.70;75.60;;;;;;6181866;23;20403;-71
2022/02/14 06:09:48;;;;;;;1.02;0.80;;;10.70;75.60;;;;;;6182955;23;20055;-71
2022/02/14 06:12:14;;;;;;;1.13;0.80;;;10.70;75.60;;;;;;6182766;23;20009;-72
2022/02/14 06:14:39;;;;;;;1.77;0.63;;;10.70;75.50;;;;;;6182589;23;20031;-72
2022/02/14 06:17:05;;;;;;;1.85;0.93;;;10.80;76.30;;;;;;6182479;23;20005;-71
2022/02/14 06:19:31;;;;;;;2.30;1.05;;;10.70;75.60;;;;;;6182772;23;20001;-71
2022/02/14 06:21:57;;;;;;;0.90;0.60;;;10.80;76.20;;;;;;6181346;23;20059;-72
2022/02/14 06:24:22;;;;;;;1.33;0.90;;;10.70;75.50;;;;;;6182724;23;20005;-72
2022/02/14 06:26:48;;;;;;;0.70;0.60;;;10.80;75.60;;;;;;6184128;23;20009;-72
2022/02/14 06:29:14;;;;;;;2.35;0.70;;;10.70;75.70;;;;;;6183135;23;20301;-71
2022/02/14 06:31:40;;;;;;;1.65;0.85;;;10.70;75.80;;;;;;6183923;23;20009;-72
2022/02/14 06:34:06;;;;;;;0.88;0.65;;;10.70;75.90;;;;;;6182522;23;20005;-72
2022/02/14 06:36:31;;;;;;;0.77;0.60;;;10.70;76.00;;;;;;6184876;23;20040;-71
2022/02/14 06:38:59;;;;;;;1.00;0.70;;;10.60;76.10;;;;;;6184755;23;20381;-72
2022/02/14 06:41:26;;;;;;;1.45;0.80;;;10.70;76.20;;;;;;6184645;23;20001;-72
2022/02/14 06:43:54;;;;;;;2.10;0.88;;;10.70;76.30;;;;;;6182363;23;20058;-71
2022/02/14 06:46:20;;;;;;;1.35;0.60;;;10.60;76.20;;;;;;6184183;23;20426;-71
2022/02/14 06:48:47;;;;;;;0.93;0.50;;;10.70;76.20;;;;;;6184507;23;19997;-71
2022/02/14 06:51:13;;;;;;;0.95;0.63;;;10.70;76.20;;;;;;6182872;23;20006;-71
2022/02/14 06:53:39;;;;;;;1.55;0.68;;;10.70;76.20;;;;;;6183009;23;20005;-72
2022/02/14 06:56:06;;;;;;;1.42;0.60;;;10.70;76.20;;;;;;6183832;23;20008;-72
2022/02/14 06:58:33;;;;;;;1.10;0.52;;;10.70;76.20;;;;;;6182358;23;20001;-71
2022/02/14 07:00:59;;;;;;;0.47;0.47;;;10.70;76.20;;;;;;6184298;23;20013;-72
2022/02/14 07:03:25;;;;;;;0.95;0.70;;;10.60;76.20;;;;;;6183914;23;20003;-71
2022/02/14 07:05:50;;;;;;;1.33;0.70;;;10.70;76.20;;;;;;6183951;23;20024;-71
2022/02/14 07:08:16;;;;;;;1.17;0.90;;;10.70;76.20;;;;;;6183664;23;20005;-71
2022/02/14 07:10:42;;;;;;;2.10;0.70;;;10.80;76.20;;;;;;6184220;23;19997;-71
2022/02/14 07:13:08;;;;;;;1.08;0.82;;;10.80;76.10;;;;;;6184285;23;20404;-72
2022/02/14 07:15:34;;;;;;;0.88;0.63;;;10.90;76.00;;;;;;6183603;23;20422;-71
2022/02/14 07:18:02;;;;;;;1.55;0.80;;;10.80;75.90;;;;;;6181880;23;20012;-71
2022/02/14 07:20:27;;;;;;;1.83;0.98;;;10.90;76.00;;;;;;6183390;23;20020;-71
2022/02/14 07:22:53;;;;;;;1.23;0.80;;;10.90;76.00;;;;;;6183660;23;20429;-71
2022/02/14 07:25:19;;;;;;;1.35;0.90;;;10.90;76.00;;;;;;6183676;23;20005;-72
2022/02/14 07:27:45;;;;;;;1.30;0.70;;;10.90;75.90;;;;;;6183755;23;20021;-71
2022/02/14 07:30:13;;;;;;;0.85;0.70;;;11.00;76.00;;;;;;6182146;23;20422;-70
2022/02/14 07:32:39;;;;;;;2.53;0.95;;;10.90;76.00;;;;;;6182326;23;20002;-71
2022/02/14 07:35:06;;;;;;;2.60;1.27;;;10.90;76.00;;;;;;6183640;23;20004;-71
2022/02/14 07:37:32;;;;;;;2.03;1.08;;;10.90;76.00;;;;;;6183678;23;20464;-71
2022/02/14 07:39:59;;;;;;;1.65;0.90;;;11.00;76.00;;;;;;6184309;23;20009;-71
2022/02/14 07:42:25;;;;;;;1.20;0.88;;;11.10;76.10;;;;;;6182216;23;20311;-72
2022/02/14 07:44:51;;;;;;;1.63;0.90;;;11.00;76.10;;;;;;6184594;23;20035;-71
2022/02/14 07:47:17;;;;;;;1.35;0.70;;;11.00;76.30;;;;;;6183681;23;20143;-72
2022/02/14 07:49:43;;;;;;;2.03;0.95;;;11.00;76.50;;;;;;6183839;23;20429;-73
2022/02/14 07:52:09;;;;;;;1.00;0.63;;;10.90;76.60;;;;;;6182117;23;20029;-73
2022/02/14 07:54:34;;;;;;;1.27;0.85;;;10.90;76.70;;;;;;6183807;23;20051;-72
2022/02/14 07:57:00;;;;;;;1.02;0.75;;;10.90;76.90;;;;;;6183795;23;20362;-73
2022/02/14 07:59:26;;;;;;;1.95;0.85;;;10.90;76.90;;;;;;6182060;23;20011;-72
2022/02/14 08:01:52;;;;;;;0.50;0.45;;;10.90;76.90;;;;;;6184170;23;20067;-73
2022/02/14 08:04:19;;;;;;;1.20;0.73;;;10.80;76.90;;;;;;6181970;23;20016;-73
2022/02/14 08:06:45;;;;;;;1.23;0.63;;;10.90;77.10;;;;;;6184415;23;20095;-74
2022/02/14 08:09:11;;;;;;;1.77;0.70;;;10.90;77.10;;;;;;6157755;23;20361;-74
2022/02/14 08:11:38;;;;;;;0.57;0.55;;;10.90;77.20;;;;;;6184646;23;20016;-74
2022/02/14 08:14:04;;;;;;;1.42;0.80;;;11.00;77.20;;;;;;6181403;23;20438;-73
2022/02/14 08:16:33;;;;;;;2.55;1.00;;;11.00;77.20;;;;;;6184607;23;20413;-74
2022/02/14 08:19:01;;;;;;;1.65;0.90;;;11.00;77.10;;;;;;6158420;23;20009;-74
2022/02/14 08:21:29;;;;;;;1.52;0.63;;;10.70;77.40;;;;;;6184789;23;20009;-73
2022/02/14 08:23:55;;;;;;;0.50;0.50;;;10.30;78.60;;;;;;6184471;23;20012;-74
2022/02/14 08:26:21;;;;;;;1.05;0.65;;;10.00;79.80;;;;;;6183347;23;20092;-74
2022/02/14 08:28:47;;;;;;;1.38;0.60;;;9.70;80.70;;;;;;6181715;23;20366;-74
2022/02/14 08:31:13;;;;;;;0.65;0.40;;;9.50;81.40;;;;;;6183942;23;19997;-74
2022/02/14 08:33:39;;;;;;;1.27;0.50;;;9.30;81.90;;;;;;6181982;23;20059;-72
2022/02/14 08:36:06;;;;;;;0.22;0.22;;;9.20;82.20;;;;;;6184357;23;20059;-72
2022/02/14 08:38:34;;;;;;;0.20;0.20;;;9.10;82.50;;;;;;6184981;23;20001;-73
2022/02/14 08:41:00;;;;;;;0.38;0.30;;;9.00;82.80;;;;;;6185929;23;20005;-73
2022/02/14 08:43:26;;;;;;;0.25;0.25;;;8.90;82.90;;;;;;6160847;23;20015;-74
2022/02/14 08:45:52;;;;;;;0.35;0.30;;;8.90;83.10;;;;;;6187073;23;20036;-72
2022/02/14 08:48:18;;;;;;;0.20;0.20;;;8.90;83.20;;;;;;6185300;23;19997;-72
2022/02/14 08:50:44;;;;;;;0.70;0.20;;;8.90;83.40;;;;;;6154343;23;20500;-73
2022/02/14 08:53:11;;;;;;;0.55;0.20;;;8.90;83.50;;;;;;6183974;23;20085;-72
2022/02/14 08:55:37;;;;;;;0.22;0.20;;;8.90;83.60;;;;;;6183843;23;20044;-73
2022/02/14 08:58:03;;;;;;;0.38;0.20;;;8.90;84.30;;;;;;6182012;23;20071;-74
2022/02/14 09:00:30;;;;;;;0.50;0.30;;;8.90;83.60;;;;;;6184013;23;20001;-72
2022/02/14 09:02:56;;;;;;;0.55;0.20;;;8.90;83.60;;;;;;6182569;23;19998;-74
2022/02/14 09:05:23;;;;;;;0.20;0.20;;;9.00;83.60;;;;;;6184059;23;19997;-73
2022/02/14 09:07:49;;;;;;;0.30;0.20;;;9.10;83.60;;;;;;6183241;23;20013;-70
2022/02/14 09:10:16;;;;;;;0.20;0.20;;;9.10;84.10;;;;;;6183402;23;20001;-73
2022/02/14 09:12:42;;;;;;;0.47;0.20;;;9.20;83.50;;;;;;6183139;23;20329;-72
2022/02/14 09:15:08;;;;;;;0.17;0.17;;;9.20;83.50;;;;;;6183243;23;20001;-73
2022/02/14 09:17:34;;;;;;;0.55;0.30;;;9.20;83.50;;;;;;6183451;23;20016;-73
2022/02/14 09:20:00;;;;;;;0.50;0.20;;;9.20;83.60;;;;;;6185589;23;20005;-74
2022/02/14 09:22:26;;;;;;;0.20;0.15;;;9.30;83.70;;;;;;6183431;23;20063;-74
2022/02/14 09:24:52;;;;;;;0.25;0.10;;;9.10;83.70;;;;;;6184151;23;20414;-73
2022/02/14 09:27:17;;;;;;;0.10;0.10;;;9.10;83.80;;;;;;6184687;23;20013;-73
2022/02/14 09:29:43;;;;;;;0.20;0.20;;;9.10;83.90;;;;;;6181236;23;20325;-71
2022/02/14 09:32:09;;;;;;;0.17;0.10;;;9.20;84.00;;;;;;6181747;23;20000;-71
2022/02/14 09:34:35;;;;;;;0.20;0.20;;;9.20;84.00;;;;;;6132622;23;20461;-72
2022/02/14 09:37:01;;;;;;;0.20;0.20;;;9.20;84.00;;;;;;6181725;23;20059;-73
2022/02/14 09:39:30;;;;;;;0.10;0.10;;;9.20;84.00;;;;;;6183749;23;20009;-72
2022/02/14 09:42:04;;;;;;;0.20;0.20;;;9.20;84.00;;;;;;6180909;23;20012;-73
2022/02/14 09:44:31;;;;;;;0.30;0.30;;;9.20;84.10;;;;;;6182654;23;20012;-74
2022/02/14 09:46:57;;;;;;;0.40;0.20;;;9.30;84.20;;;;;;6181304;23;20318;-74
2022/02/14 09:49:24;;;;;;;0.60;0.40;;;9.40;84.20;;;;;;6183114;23;20005;-74
2022/02/14 09:51:54;;;;;;;1.02;0.60;;;9.40;84.00;;;;;;6181729;23;20063;-74
2022/02/14 09:54:21;;;;;;;0.68;0.55;;;9.40;84.00;;;;;;6181768;23;20024;-73
2022/02/14 09:56:47;;;;;;;0.93;0.65;;;9.50;84.10;;;;;;6182734;23;20007;-73
2022/02/14 09:59:14;;;;;;;1.30;0.80;;;9.50;84.60;;;;;;6183096;23;20496;-75
2022/02/14 10:01:40;;;;;;;1.08;0.88;;;9.50;84.00;;;;;;6184582;23;20009;-73
2022/02/14 10:04:06;;;;;;;1.30;1.00;;;9.60;84.10;;;;;;6184509;23;20017;-74
2022/02/14 10:06:37;;;;;;;2.60;1.10;;;9.70;84.10;;;;;;6158426;23;20417;-73
2022/02/14 10:09:16;;;;;;;1.38;1.05;;;9.70;84.10;;;;;;6184585;23;20009;-72
2022/02/14 10:12:01;;;;;;;1.58;1.17;;;9.80;84.10;;;;;;6182638;23;20005;-73
2022/02/14 10:14:27;;;;;;;1.80;1.08;;;9.80;84.00;;;;;;6180928;23;20326;-73
2022/02/14 10:17:01;;;;;;;1.77;1.40;;;9.90;84.10;;;;;;6184497;23;20001;-72
2022/02/14 10:19:28;;;;;;;1.20;1.10;;;10.00;84.00;;;;;;6184054;23;20051;-73
2022/02/14 10:21:54;;;;;;;2.90;1.20;;;10.00;83.90;;;;;;6184602;23;20332;-73
2022/02/14 10:24:20;;;;;;;2.80;1.40;;;10.10;83.90;;;;;;6184036;23;20422;-74
2022/02/14 10:26:49;;;;;;;2.05;1.40;;;10.20;84.00;;;;;;6181110;23;20018;-73
2022/02/14 10:29:21;;;;;;;1.33;1.20;;;10.20;83.90;;;;;;6184510;23;19997;-74
2022/02/14 10:31:49;;;;;;;1.73;1.45;;;10.20;83.80;;;;;;6182469;23;19997;-73
2022/02/14 10:34:16;;;;;;;1.50;1.40;;;10.40;83.90;;;;;;6183277;23;20020;-72
2022/02/14 10:36:45;;;;;;;1.85;1.35;;;10.30;83.90;;;;;;6184698;23;20036;-73
2022/02/14 10:39:18;;;;;;;3.00;1.52;;;10.40;83.80;;;;;;6183900;23;20333;-73
2022/02/14 10:41:47;;;;;;;1.98;1.50;;;10.40;83.80;;;;;;6184393;23;20330;-74
2022/02/14 10:45:07;;;;;;;1.50;1.33;;;10.40;83.80;;;;;;6184366;23;20063;-74
2022/02/14 10:47:11;;;;;;;2.05;1.30;;;10.40;83.80;;;;;;6159797;23;20043;-73
2022/02/14 10:49:37;;;;;;;2.28;1.27;;;10.40;83.90;;;;;;6182544;23;20059;-74
2022/02/14 10:52:05;;;;;;;2.85;1.50;;;10.40;83.90;;;;;;6184482;23;20055;-75
2022/02/14 10:54:36;;;;;;;2.67;1.67;;;10.50;83.90;;;;;;6157533;23;20307;-74
2022/02/14 10:57:02;;;;;;;4.15;1.60;;;10.60;83.80;;;;;;6185194;23;20005;-73
2022/02/14 10:59:29;;;;;;;2.75;1.52;;;10.60;83.50;;;;;;6183682;23;20067;-73
2022/02/14 11:01:56;;;;;;;2.08;1.70;;;10.60;83.30;;;;;;6184175;23;20008;-72
2022/02/14 11:04:22;;;;;;;3.17;1.67;;;10.60;83.40;;;;;;6182376;23;20060;-72
2022/02/14 11:06:49;;;;;;;2.63;1.75;;;10.60;83.40;;;;;;6184152;23;20338;-71
2022/02/14 11:09:17;;;;;;;2.30;1.67;;;10.60;83.50;;;;;;6184015;23;20008;-71
2022/02/14 11:11:46;;;;;;;2.40;1.60;;;10.60;83.40;;;;;;6183181;23;20013;-71
2022/02/14 11:14:12;;;;;;;2.67;1.50;;;10.50;83.40;;;;;;6183762;23;20491;-72
2022/02/14 11:16:41;;;;;;;2.45;1.40;;;10.50;83.40;;;;;;6184294;23;20310;-71
2022/02/14 11:19:10;;;;;;;2.58;1.42;;;10.50;83.60;;;;;;6182094;23;20376;-72
2022/02/14 11:21:36;;;;;;;2.08;1.30;;;10.50;83.90;;;;;;6184084;23;20008;-72
2022/02/14 11:24:15;;;;;;;2.25;1.40;;;10.70;83.70;;;;;;6182523;23;20008;-71
2022/02/14 11:26:55;;;;;;;1.77;1.30;;;10.70;83.30;;;;;;6182300;23;20025;-72
2022/02/14 11:29:36;;;;;;;2.28;1.23;;;10.70;83.20;;;;;;6184337;23;20008;-71
2022/02/14 11:32:15;;;;;;;1.58;1.30;;;10.80;83.10;;;;;;6182365;23;20416;-71
2022/02/14 11:34:58;;;;;;;3.63;1.60;;;11.10;82.80;;;;;;6183600;23;20001;-72
2022/02/14 11:37:44;;;;;;;2.05;1.40;;;11.00;82.40;;;;;;6182424;23;20005;-71
2022/02/14 11:40:26;;;;;;;2.45;1.60;;;11.00;82.30;;;;;;6184111;23;20059;-70
2022/02/14 11:43:05;;;;;;;2.25;1.25;;;11.00;82.20;;;;;;6183701;23;20029;-69
2022/02/14 11:45:31;;;;;;;2.25;1.40;;;11.00;82.10;;;;;;6182404;23;20013;-73
2022/02/14 11:48:17;;;;;;;2.22;1.40;;;10.90;82.10;;;;;;6184164;23;20009;-73
2022/02/14 11:50:43;;;;;;;1.48;1.30;;;10.90;82.10;;;;;;6183563;23;20005;-74
2022/02/14 11:53:42;;;;;;;1.30;1.20;;;10.90;82.00;;;;;;6184144;23;20105;-74
2022/02/14 11:56:25;;;;;;;2.72;1.17;;;10.90;82.00;;;;;;6184269;23;20013;-71
2022/02/14 11:59:07;;;;;;;1.85;1.20;;;10.80;82.10;;;;;;6181835;23;20385;-72
2022/02/14 12:01:37;;;;;;;2.60;1.30;;;11.00;82.20;;;;;;6183983;23;20092;-72
2022/02/14 12:04:38;;;;;;;2.40;1.40;;;11.10;81.60;;;;;;6181238;23;20079;-72
2022/02/14 12:07:35;;;;;;;2.35;1.30;;;11.00;81.30;;;;;;6182394;23;20013;-73
2022/02/14 12:10:13;;;;;;;1.85;1.23;;;11.00;81.20;;;;;;6183628;23;20012;-73
2022/02/14 12:13:04;;;;;;;3.88;1.42;;;11.00;81.10;;;;;;6183600;23;19997;-73
2022/02/14 12:21:13;;;;;;;2.40;1.40;;;11.10;80.10;;;;;;6182487;23;20016;-73
2022/02/14 12:23:43;;;;;;;1.30;1.10;;;10.90;80.40;;;;;;6155969;23;20002;-72
2022/02/14 12:26:14;;;;;;;1.88;1.20;;;11.00;80.50;;;;;;6183576;23;20529;-74
2022/02/14 12:28:42;;;;;;;2.08;1.08;;;10.90;81.20;;;;;;6184065;23;20029;-72
2022/02/14 12:31:08;;;;;;;1.30;1.17;;;10.80;80.40;;;;;;6183993;23;20007;-71
2022/02/14 12:33:35;;;;;;;2.05;1.30;;;10.80;80.60;;;;;;6183825;23;20001;-71
2022/02/14 12:36:04;;;;;;;1.77;1.10;;;10.80;80.60;;;;;;6183484;23;20017;-73
2022/02/14 12:38:33;;;;;;;3.25;1.60;;;10.80;80.70;;;;;;6182777;23;20039;-72
2022/02/14 12:41:04;;;;;;;1.55;1.10;;;10.80;80.60;;;;;;6183573;23;20012;-71
2022/02/14 12:43:49;;;;;;;1.85;1.20;;;10.80;80.30;;;;;;6184323;23;20005;-72
2022/02/14 12:46:18;;;;;;;1.20;1.10;;;10.80;80.40;;;;;;6155758;23;20397;-72
2022/02/14 12:48:46;;;;;;;1.33;1.02;;;10.70;80.30;;;;;;6183798;23;20005;-72
2022/02/14 12:51:30;;;;;;;2.30;1.00;;;10.60;80.30;;;;;;6183820;23;20004;-71
2022/02/14 12:54:00;;;;;;;1.00;0.80;;;10.50;80.30;;;;;;6183455;23;20422;-72
2022/02/14 12:56:30;;;;;;;1.67;0.80;;;10.50;80.30;;;;;;6184055;23;20001;-72
2022/02/14 12:58:59;;;;;;;0.95;0.80;;;10.40;80.10;;;;;;6182341;23;20493;-72